Historyczne dane pomiarowe

Dodano dane terminowe – wersja testowa.

Dane z okresu 1951-2019

Wersja bazy: 1.34 [2019-03-16, lista zmian], aktualizacja planowana na 2019-04-15

Dane meteo z obszaru Polski uzyskane na podstawie danych udostępnionych przez Instytut Meteorologii i Gospodarki Wodnej – Państwowy Instytut Badawczy.

 

Wybierz Datę:    

       

TemperaturaWilgotnośćWiatrCiśnienieOpadyŚniegCzas trwania zjawisk
 Stacja t tx tn tng RH VA  wxwx mslp ppp RRR   cm mm wxwxwxwxwxwxwx
1998-01-17 3.9 6.3 2.4 0.5-- 4.7 2.7---- 2.0------------
1998-01-18 2.8 4.9 1.5 0.1-- 6.0 3.7---- 0.0------------
1998-01-19 3.0 4.4 1.4 -1.0-- 6.0 2.7---- 2.2------------
1998-01-20 3.2 4.4 2.4 1.8-- 7.0 2.3---- 0.0------------
1998-01-21 2.8 3.3 2.2 1.5-- 8.0 2.0---- 1.1------------
1998-01-22 1.2 3.1 -0.1 -0.3-- 8.0 2.3---- 0.0------------
1998-01-23 -2.0 1.4 -3.5 -5.3-- 0.0 2.0---- 0.0------------
1998-01-24 -2.8 -1.6 -5.2 -8.2-- 8.0 1.3---- 0.0------------
1998-01-25 -5.3 -1.8 -7.7-10.1-- 3.0 1.3---- 0.0------------
1998-01-26 -5.4 -0.6 -9.6-12.0-- 4.7 1.3---- 0.0------------
1998-01-27 -4.6 -1.6 -6.5 -6.5-- 7.7 2.7---- 0.0------------
1998-01-28 -3.1 -0.1 -6.6 -8.0-- 6.0 6.3---- 0.0------------
1998-01-29 -5.3 0.2 -9.2-12.0-- 1.3 0.7---- 0.0------------
1998-01-30 -2.7 0.9 -8.1-11.5-- 8.0 5.7---- 0.5------------
1998-01-31 -5.9 0.9 -9.6-12.9-- 2.0 4.3---- 0.0-- 1---------
1998-02-01-10.2 -4.6-13.3-17.4-- 1.3 0.7---- 0.0-- 1---------
1998-02-02 -9.5 -5.1-12.2-16.0-- 3.3 2.0---- 0.2-- 1---------
1998-02-03 -4.4 -1.5 -9.0-12.4-- 7.3 9.7---- 0.5-- 2---------
1998-02-04 -1.4 1.6 -3.5 -6.4-- 4.7 2.3---- 0.0-- 3---------
1998-02-05 -0.4 1.9 -3.6 -5.7-- 6.3 2.7---- 0.0-- 3---------
1998-02-06 1.9 2.5 1.4 0.8-- 8.0 1.7---- 0.0------------
1998-02-07 3.1 7.1 1.2 -2.2-- 4.0 2.0---- 0.0------------
1998-02-08 2.4 4.5 0.9 -2.2-- 6.3 5.7---- 0.5------------
1998-02-09 2.7 5.1 0.8 -0.7-- 7.0 2.3---- 0.0------------
1998-02-10 4.0 7.1 1.4 -1.7-- 6.3 2.3---- 0.0------------
1998-02-11 5.8 8.4 4.2 2.8-- 6.3 1.7---- 0.6------------
1998-02-12 8.4 10.7 5.0 3.0-- 8.0 10.3---- 3.8------------
1998-02-13 7.2 10.7 4.5 3.5-- 7.3 2.3---- 2.0------------
1998-02-14 6.5 10.8 2.0 0.6-- 7.7 4.0---- 1.0------------
1998-02-15 9.5 11.3 8.8 7.6-- 8.0 6.0---- 2.6------------
184.4 ms

 

Źródłem pochodzenia danych jest Instytut Meteorologii i Gospodarki Wodnej – Państwowy Instytut Badawczy. Dane Instytutu Meteorologii i Gospodarki Wodnej – Państwowego Instytutu Badawczego zostały przetworzone.

Dane źródłowe można odnaleźć na stronie https://dane.imgw.pl